Weather observations for the past three days for
Salem, Salem-Leckrone Airport
Imperial (Metric)
Date Time (cdt) Wind (mph) Vis. (mi.) Weather Sky Cond. Temperature (ºF) Relative Humidity Wind Chill (°F) Heat Index (°F) Pressure Precipitation (in)
Air Dwpt 6 hour altimeter (in) sea level (mb) 1 hr 3 hr 6 hr
Max. Min.
04 18:15 S 21 G 30 10.00 Fair and Breezy CLR 77 50.5 40% 78 29.64 0.0
04 17:55 S 17 G 26 10.00 Thunderstorm in Vicinity CLR 77 50.7 40% 78 29.64 0.0
04 17:35 S 18 G 28 10.00 Fair CLR 77 51.1 40% 78 29.65 0.0
04 17:15 SW 18 G 26 10.00 Fair CLR 76.6 51.1 41% 78 29.65 0.0
04 16:55 S 13 G 22 10.00 Fair CLR 75.6 49.6 40% 78 29.64 0.0
04 16:35 S 17 G 29 10.00 Fair CLR 74.3 49.1 41% 29.65 0.0
04 16:15 S 20 G 26 10.00 Fair CLR 73.6 50.7 45% 29.68 0.0
04 15:55 S 14 G 20 10.00 Partly Cloudy SCT060 SCT080 SCT090 72 53.4 52% 29.68 0.0
04 15:35 SE 10 10.00 Light Drizzle SCT050 BKN075 OVC095 69.1 56.5 64% 29.69 0.0
04 15:15 SW 6 10.00 Light Rain SCT075 BKN095 OVC120 66.4 60.1 80% 29.76 0.0
04 14:35 N 7 10.00 Thunderstorm in Vicinity BKN120 68.7 57.2 67% 29.75 0.0
04 14:15 NW 5 10.00 Thunderstorm in Vicinity SCT120 69.8 56.8 64% 29.75 0.0
04 13:55 SW 6 G 9 10.00 Partly Cloudy SCT120 71.1 55.9 59% 29.75 0.0
04 13:35 S 10 10.00 Thunderstorm in Vicinity SCT120 71.6 55.4 57% 29.72 0.0
04 13:15 S 10 10.00 Partly Cloudy SCT110 71.6 55.4 57% 29.7 0.0
04 12:55 SW 14 G 23 10.00 Mostly Cloudy BKN110 71.8 54.9 73.6 61 55% 29.73 0.0
04 12:35 S 17 G 24 10.00 Partly Cloudy SCT120 72 54.9 55% 29.73 0.0
04 12:15 S 17 G 26 10.00 Fair CLR 72.5 55 54% 29.73 0.0
04 11:55 SW 21 G 26 10.00 Fair and Breezy CLR 73.6 56.5 55% 29.75 0.0
04 11:35 S 15 G 20 10.00 Thunderstorm in Vicinity CLR 73.4 56.1 55% 29.76 0.0
04 11:15 SW 18 G 24 10.00 Fair CLR 72.5 54.9 54% 29.77 0.0
04 10:55 SW 16 G 21 10.00 Fair CLR 73.4 56.1 55% 29.77 0.0
04 10:35 SW 17 10.00 Fair CLR 72.5 56.7 58% 29.78 0.0
04 10:15 S 14 G 21 10.00 Fair CLR 71.6 56.7 59% 29.77 0.0
04 09:55 SW 17 G 21 10.00 Partly Cloudy SCT120 70.2 56.1 61% 29.77 0.0
04 09:35 SW 13 10.00 Fair CLR 70.5 55.9 60% 29.77 0.0
04 09:15 SW 15 G 20 10.00 Partly Cloudy SCT120 69.1 55.2 61% 29.78 0.0
04 08:55 S 12 10.00 Partly Cloudy SCT120 66.7 55.9 68% 29.78 0.0
04 08:35 S 14 G 20 10.00 Partly Cloudy SCT110 65.3 54.7 69% 29.79 0.0
04 08:15 S 12 G 17 10.00 Fair CLR 64.6 54.5 70% 29.79 0.0
04 07:55 S 13 10.00 Fair CLR 62.6 53.8 73% 29.8 0.0
04 07:35 S 14 10.00 Fair CLR 62.2 53.6 74% 29.8 0.0
04 07:15 S 13 10.00 Partly Cloudy SCT110 61.9 53.2 73% 29.8 0.0
04 06:55 S 8 10.00 Mostly Cloudy BKN110 60.8 53.4 62.6 57.4 77% 29.8 0.0 0.04
04 06:35 S 7 10.00 Partly Cloudy SCT100 SCT120 59.9 53.2 79% 29.81 0.0
04 06:15 S 6 10.00 Partly Cloudy SCT100 SCT120 59.9 53.1 78% 29.8 0.0
04 05:55 SE 6 10.00 Mostly Cloudy BKN120 59.9 52.9 78% 29.8 0.0
04 05:35 S 6 10.00 Mostly Cloudy BKN120 59.7 52.9 78% 29.8 0.0
04 05:15 S 7 10.00 Partly Cloudy SCT120 60.1 52.7 77% 29.8 0.0
04 04:55 SE 8 10.00 Mostly Cloudy BKN110 59.9 52.9 78% 29.81 0.0
04 04:35 SE 8 10.00 Mostly Cloudy BKN100 59.4 53.1 80% 29.82 0.0
04 04:15 SE 7 10.00 Thunderstorm Light Rain SCT023 SCT050 OVC100 58.6 54.5 86% 29.83 0.0
04 03:55 E 3 10.00 Mostly Cloudy BKN110 58.1 54.9 89% 29.83 0.0 0.01 0.04
04 03:35 S 6 10.00 Partly Cloudy SCT110 58.1 54.7 88% 29.82 0.0 0.01
04 03:15 SE 8 10.00 Thunderstorm Light Rain in Vicinity SCT070 BKN100 58.1 55.8 92% 29.81 0.0 0.01
04 02:55 SE 3 10.00 Overcast OVC070 57.9 55.8 93% 29.84 0.0
04 02:35 Calm 10.00 Overcast SCT070 BKN090 OVC110 58.3 55.2 90% 29.85 0.0
04 02:15 SE 6 10.00 Thunderstorm Light Rain SCT050 SCT085 OVC100 58.3 54.9 88% 29.82 0.0
04 01:55 NW 8 G 18 7.00 Thunderstorm Heavy Rain SCT047 SCT060 OVC085 61 52.7 74% 29.88 0.0 0.03
04 01:15 S 3 10.00 Thunderstorm Light Rain BKN085 BKN120 61.7 50.4 67% 29.82 0.0
04 00:55 SW 6 10.00 Fair CLR 61.5 49.6 68 61.5 65% 29.82 0.0
04 00:35 SW 5 10.00 Partly Cloudy SCT085 SCT110 61.7 48.7 63% 29.82 0.0
04 00:15 S 8 10.00 Partly Cloudy SCT095 62.6 48.2 60% 29.79 0.0
03 23:55 S 9 10.00 Fair CLR 62.4 47.3 58% 29.81 0.0
03 23:35 S 9 10.00 Fair CLR 62.4 46.8 57% 29.82 0.0
03 23:15 S 8 10.00 Fair CLR 62.6 46.2 55% 29.83 0.0
03 22:55 S 8 10.00 Fair CLR 63.3 45.7 53% 29.83 0.0
03 22:35 S 10 10.00 Fair CLR 64 45.3 51% 29.84 0.0
03 22:15 S 12 G 18 10.00 Fair CLR 64 45.3 51% 29.83 0.0
03 21:55 S 12 G 17 10.00 Partly Cloudy SCT090 64.4 45 49% 29.83 0.0
03 21:35 S 13 G 16 10.00 Partly Cloudy SCT090 64.4 44.6 49% 29.83 0.0
03 21:15 S 10 G 16 10.00 Thunderstorm BKN090 64.6 44.8 49% 29.83 0.0
03 20:55 S 8 10.00 Thunderstorm in Vicinity SCT090 64.8 44.2 48% 29.83 0.0
03 20:35 S 10 10.00 Fair CLR 64.8 44.4 48% 29.83 0.0
03 20:15 S 12 10.00 Thunderstorm in Vicinity CLR 65.3 44.1 46% 29.83 0.0
03 19:55 S 10 10.00 Fair CLR 66.2 44.2 45% 29.84 0.0
03 19:35 S 12 G 17 10.00 Fair CLR 67.1 43.9 43% 29.84 0.0
03 19:15 S 12 G 18 10.00 Fair CLR 67.6 44.2 43% 29.84 0.0
03 18:55 S 12 G 20 10.00 Fair CLR 68 44.8 69.8 64.2 43% 29.85 0.0
03 18:35 S 15 G 24 10.00 Fair CLR 68.5 44.2 42% 29.85 0.0
03 18:15 SW 16 G 25 10.00 Fair CLR 69.1 45.5 43% 29.86 0.0
03 17:55 SW 18 G 22 10.00 Fair CLR 69.1 44.8 42% 29.86 0.0
03 17:35 S 18 G 26 10.00 Fair CLR 68.9 43.7 40% 29.85 0.0
03 17:15 S 18 G 28 10.00 Fair CLR 68.9 43.7 40% 29.85 0.0
03 16:55 S 21 G 28 10.00 Fair and Breezy CLR 69.4 45 42% 29.86 0.0
03 16:35 S 21 G 28 10.00 Fair and Breezy CLR 69.1 44.6 41% 29.87 0.0
03 16:15 S 17 G 23 10.00 Fair CLR 69.8 46.8 44% 29.88 0.0
03 15:55 S 22 G 28 10.00 Fair and Breezy CLR 68.5 44.8 43% 29.89 0.0
03 15:35 S 16 G 25 10.00 Fair CLR 68.2 45.3 44% 29.91 0.0
03 15:15 SW 18 G 25 10.00 Fair CLR 67.8 45.3 45% 29.93 0.0
03 14:55 SW 22 G 28 10.00 Fair and Breezy CLR 67.8 44.6 43% 29.94 0.0
03 14:35 SW 18 G 28 10.00 Fair CLR 67.3 46.6 48% 29.96 0.0
03 14:15 S 20 G 26 10.00 Fair CLR 66.9 46 47% 29.97 0.0
03 13:55 SW 21 G 29 10.00 Fair and Breezy CLR 66.2 45 46% 29.99 0.0
03 13:35 SW 18 G 29 10.00 Fair CLR 65.8 45.7 48% 30 0.0
03 13:15 SW 18 G 30 10.00 Fair CLR 64.9 45 49% 30.01 0.0
03 12:55 SW 23 G 30 10.00 Fair and Breezy CLR 64 43.9 64.2 46.6 48% 30.03 0.0
03 12:35 S 17 G 24 10.00 Fair CLR 63.7 45.7 52% 30.04 0.0
03 12:15 SW 18 G 28 10.00 Fair CLR 63.3 44.6 51% 30.06 0.0
03 11:55 S 18 G 23 10.00 Fair CLR 62.6 45 53% 30.06 0.0
03 11:35 SW 15 G 23 10.00 Fair CLR 61.9 45 54% 30.07 0.0
03 11:15 SW 20 G 23 10.00 Fair CLR 61 44.4 55% 30.08 0.0
03 10:55 S 16 G 23 10.00 Fair CLR 60.3 44.8 57% 30.09 0.0
03 10:35 SW 18 G 22 10.00 Fair CLR 60.3 44.8 57% 30.1 0.0
03 10:15 SW 16 G 22 10.00 Fair CLR 59 43.7 57% 30.1 0.0
03 09:55 S 17 G 23 10.00 Fair CLR 58.1 43.5 59% 30.1 0.0
03 09:35 S 18 10.00 Fair CLR 57.2 43 59% 30.1 0.0
03 09:15 S 15 G 18 10.00 Fair CLR 55.9 43.3 63% 30.1 0.0
03 08:55 S 14 10.00 Fair CLR 54.7 42.4 64% 30.12 0.0
03 08:35 SW 10 10.00 Fair CLR 53.6 43.2 68% 30.12 0.0
03 08:15 S 10 10.00 Fair CLR 52 42.4 70% 30.11 0.0
03 07:55 S 9 G 17 10.00 Fair CLR 50.5 42.6 74% 30.11 0.0
03 07:35 S 10 10.00 Fair CLR 49.1 41.9 76% 45 30.11 0.0
03 07:15 S 8 10.00 Fair CLR 47.7 41.5 79% 44 30.11 0.0
03 06:55 S 8 10.00 Fair CLR 46.4 41.2 46.4 42.3 82% 43 30.1 0.0
03 06:35 S 3 10.00 Fair CLR 44.8 40.6 85% 30.1 0.0
03 06:15 Calm 10.00 Fair CLR 43.9 40.5 88% 30.1 0.0
03 05:55 Calm 10.00 Fair CLR 43.7 40.5 88% 30.1 0.0
03 05:35 S 5 10.00 Fair CLR 43.7 40.5 88% 42 30.1 0.0
03 05:15 S 5 10.00 Fair CLR 43.2 40.6 91% 41 30.1 0.0
03 04:55 Calm 10.00 Fair CLR 42.8 41 93% 30.1 0.0
03 04:35 Calm 10.00 Fair CLR 42.6 41.2 95% 30.1 0.0
03 04:15 Calm 10.00 Fair CLR 42.8 41 93% 30.11 0.0
03 03:55 Calm 10.00 Fair CLR 42.8 41.2 94% 30.11 0.0
03 03:35 Calm 10.00 Fair CLR 43.7 41.2 91% 30.11 0.0
03 03:15 Calm 10.00 Fair CLR 44.1 41.2 90% 30.11 0.0
03 02:55 Calm 10.00 Fair CLR 44.2 41.2 89% 30.1 0.0
03 02:35 Calm 10.00 Fair CLR 44.1 41.2 90% 30.1 0.0
03 02:15 Calm 10.00 Fair CLR 44.1 41.4 90% 30.11 0.0
03 01:55 Calm 10.00 Fair CLR 44.8 41.2 87% 30.11 0.0
03 01:35 Calm 10.00 Fair CLR 44.8 41.2 87% 30.11 0.0
03 01:15 Calm 10.00 Fair CLR 44.8 41 87% 30.12 0.0
03 00:55 Calm 10.00 Fair CLR 44.4 40.3 57.2 43.3 85% 30.12 0.0
03 00:35 Calm 10.00 Fair CLR 44.6 40.5 85% 30.12 0.0
03 00:15 S 3 10.00 Fair CLR 43.5 41.5 93% 30.12 0.0
02 23:55 Calm 10.00 Fair CLR 43.7 41.4 92% 30.12 0.0
02 23:35 Calm 10.00 Fair CLR 43.7 41 90% 30.12 0.0
02 23:15 Calm 10.00 Fair CLR 44.2 40.8 88% 30.12 0.0
02 22:55 Calm 10.00 Fair CLR 44.8 40.8 86% 30.12 0.0
02 22:35 Calm 10.00 Fair CLR 45.5 41.7 87% 30.12 0.0
02 22:15 Calm 10.00 Fair CLR 45.9 39.7 79% 30.12 0.0
02 21:55 Calm 10.00 Fair CLR 46.4 41 82% 30.12 0.0
02 21:35 Calm 10.00 Fair CLR 47.1 41.9 82% 30.12 0.0
02 21:15 Calm 10.00 Fair CLR 47.7 41.2 78% 30.11 0.0
02 20:55 Calm 10.00 Fair CLR 49.1 41.5 75% 30.11 0.0
02 20:35 Calm 10.00 Fair CLR 49.3 41.2 74% 30.1 0.0
02 20:15 Calm 10.00 Fair CLR 50.9 40.3 67% 30.1 0.0
02 19:55 Calm 10.00 Fair CLR 53.2 40.6 62% 30.1 0.0
02 19:35 N 3 10.00 Fair CLR 55.2 39.6 56% 30.09 0.0
02 19:15 NW 6 10.00 Fair CLR 56.5 38.5 51% 30.09 0.0
02 18:55 N 6 10.00 Fair CLR 57.2 36.7 59.4 54.9 46% 30.09 0.0
02 18:35 N 7 10.00 Fair CLR 57.6 36.3 45% 30.09 0.0
02 18:15 NW 3 10.00 Fair CLR 58.1 36.1 44% 30.09 0.0
02 17:55 NW 8 10.00 Fair CLR 58.1 36.1 44% 30.09 0.0
02 17:35 N 5 10.00 Partly Cloudy SCT060 SCT070 58.5 38.3 47% 30.09 0.0
02 17:15 NW 7 10.00 Partly Cloudy SCT060 SCT080 58.3 37.4 46% 30.08 0.0
02 16:55 N 7 10.00 Mostly Cloudy SCT060 SCT070 BKN080 56.8 37.9 49% 30.09 0.0
02 16:35 NE 8 10.00 Mostly Cloudy SCT060 BKN080 57.2 38.1 49% 30.08 0.0
02 16:15 N 5 10.00 Mostly Cloudy SCT060 SCT080 BKN090 59.2 38.3 46% 30.08 0.0
02 15:55 E 7 10.00 Overcast SCT060 BKN080 OVC090 57.6 37.8 48% 30.09 0.0
02 15:35 N 5 10.00 Overcast SCT060 BKN070 OVC080 57.9 37.6 47% 30.09 0.0
02 15:15 N 7 10.00 Overcast OVC060 56.5 37.9 50% 30.1 0.0
02 14:55 N 5 10.00 Overcast SCT060 OVC075 56.7 37.2 48% 30.1 0.0
02 14:35 Calm 10.00 Overcast SCT050 OVC075 56.3 36.9 48% 30.1 0.0
02 14:15 N 8 10.00 Overcast SCT050 OVC075 56.5 38.3 51% 30.1 0.0
02 13:55 N 8 10.00 Overcast OVC065 56.3 39.9 54% 30.1 0.0
02 13:35 N 10 10.00 Overcast SCT039 SCT050 OVC065 55.6 41 58% 30.1 0.0
02 13:15 N 8 10.00 Overcast SCT034 BKN042 OVC075 55.6 43 63% 30.1 0.0
02 12:55 NE 5 10.00 Overcast SCT028 BKN036 OVC075 54.9 42.8 55.4 47.3 64% 30.1 0.0 0.05
02 12:35 NE 6 10.00 Overcast SCT023 BKN032 OVC050 53.8 44.2 70% 30.11 0.0
02 12:15 NE 5 10.00 Overcast BKN021 BKN027 OVC033 55.4 46 71% 30.11 0.0
02 11:55 Calm 10.00 Overcast SCT019 BKN026 OVC100 53.2 46 77% 30.12 0.0
02 11:35 Calm 10.00 Overcast OVC090 52.5 45.5 77% 30.13 0.0
02 11:15 Calm 10.00 Overcast OVC090 51.6 45.3 79% 30.13 0.0
02 10:55 Calm 10.00 Overcast OVC090 50.7 45.3 82% 30.12 0.0
02 10:35 Calm 10.00 Overcast SCT050 SCT070 OVC090 49.5 45.5 86% 30.12 0.0
02 10:15 Calm 10.00 Light Rain SCT042 BKN050 OVC090 48.4 45.1 89% 30.12 0.0
02 09:55 NE 6 10.00 Light Rain SCT033 OVC042 47.7 44.4 89% 45 30.11 0.0 0.05 0.05
02 09:35 S 3 3.00 Rain SCT020 OVC033 48.2 40.1 74% 30.12 0.0 0.05
02 09:15 N 16 10.00 Overcast SCT020 OVC050 50.7 44.4 79% 30.11 0.0
02 08:55 NE 7 10.00 Overcast SCT050 OVC060 51.3 43.9 76% 30.09 0.0
02 08:35 E 6 10.00 Overcast OVC060 51.4 43.2 73% 30.08 0.0
02 08:15 E 7 10.00 Overcast BKN060 OVC110 51.1 43.5 75% 30.08 0.0
02 07:55 E 5 10.00 Overcast SCT050 SCT065 OVC110 50.7 44.6 80% 30.07 0.0
02 07:35 E 5 10.00 Overcast BKN055 BKN065 OVC110 49.8 44.4 82% 49 30.07 0.0
02 07:15 NE 3 10.00 Overcast BKN060 OVC100 49.1 43.9 82% 30.07 0.0
02 06:55 NE 6 10.00 Overcast SCT060 SCT080 OVC100 48.9 43.3 51.4 48.7 81% 47 30.06 0.0
02 06:35 NE 6 10.00 Overcast BKN070 BKN080 OVC110 49.1 43.2 80% 47 30.06 0.0
02 06:15 NE 5 10.00 Overcast SCT065 OVC075 49.1 43.7 82% 48 30.05 0.0
02 05:55 Calm 10.00 Overcast BKN065 OVC075 49.1 44.2 83% 30.05 0.0
02 05:35 Calm 10.00 Overcast OVC065 49.1 44.4 84% 30.05 0.0
02 05:15 Calm 10.00 Overcast OVC065 49.1 43.7 82% 30.04 0.0
02 04:55 Calm 10.00 Overcast OVC075 49.1 43.9 82% 30.04 0.0
02 04:35 Calm 10.00 Overcast SCT060 OVC075 49.1 43.9 82% 30.05 0.0
02 04:15 NE 5 10.00 Light Rain SCT050 OVC060 49.3 43.9 82% 48 30.05 0.0
02 03:55 Calm 10.00 Overcast BKN065 BKN080 OVC090 49.5 43.5 80% 30.05 0.0
02 03:35 Calm 10.00 Overcast BKN080 BKN090 OVC120 49.3 43 79% 30.04 0.0
02 03:15 E 3 10.00 Mostly Cloudy SCT070 BKN110 49.3 43 79% 30.05 0.0
02 02:55 NE 3 10.00 Mostly Cloudy SCT060 BKN070 BKN100 49.3 43.2 80% 30.05 0.0
02 02:35 NE 3 10.00 Overcast BKN070 OVC080 50.4 44.4 80% 30.05 0.0
02 02:15 Calm 10.00 Overcast OVC070 50.4 43.2 76% 30.05 0.0
02 01:55 Calm 10.00 Light Rain SCT050 BKN070 OVC110 50.9 43.3 75% 30.05 0.0
02 01:35 Calm 10.00 Overcast BKN070 OVC080 51.1 43.3 75% 30.05 0.0
02 01:15 Calm 10.00 Overcast BKN080 OVC110 51.4 43.2 73% 30.05 0.0
02 00:55 Calm 10.00 Overcast SCT070 BKN090 OVC120 51.6 43 58.8 49.1 73% 30.05 0.0
02 00:35 E 3 10.00 Light Drizzle SCT050 BKN070 OVC090 51.8 42.8 72% 30.06 0.0
02 00:15 NE 5 10.00 Overcast OVC070 51.8 42.8 72% 30.06 0.0
01 23:55 NE 3 10.00 Overcast BKN080 OVC090 51.8 41.4 68% 30.06 0.0
01 23:35 NE 7 10.00 Mostly Cloudy SCT070 BKN090 BKN120 49.3 45.1 86% 47 30.05 0.0
01 23:15 Calm 10.00 Partly Cloudy SCT120 49.5 44.2 82% 30.05 0.0
01 22:55 Calm 10.00 Partly Cloudy SCT080 50.5 42.3 73% 30.05 0.0
01 22:35 Calm 10.00 Overcast OVC080 50.9 44.8 80% 30.06 0.0
01 22:15 Calm 10.00 Overcast BKN090 OVC110 51.1 45.9 82% 30.06 0.0
01 21:55 Calm 10.00 Overcast BKN090 OVC120 50.7 44.4 79% 30.06 0.0
01 21:35 Calm 10.00 Partly Cloudy SCT090 SCT110 51.1 42.3 72% 30.06 0.0
01 21:15 Calm 10.00 Fair CLR 50.9 41.2 70% 30.05 0.0
01 20:55 Calm 10.00 Fair CLR 50.7 42.3 73% 30.04 0.0
01 20:35 E 3 10.00 Fair CLR 51.4 41.7 70% 30.04 0.0
01 20:15 Calm 10.00 Fair CLR 52.2 41.9 68% 30.03 0.0
01 19:55 Calm 10.00 Fair CLR 54 42.6 66% 30.02 0.0
01 19:35 Calm 10.00 Fair CLR 57.2 40.1 53% 30.02 0.0
01 19:15 Calm 10.00 Fair CLR 58.5 36.9 45% 30.01 0.0
01 18:55 NW 6 10.00 Fair CLR 59 36.7 61.3 57.6 44% 30 0.0
01 18:35 NW 6 G 16 10.00 Fair CLR 59.2 37.4 44% 30 0.0
Date Time (cdt) Wind (mph) Vis. (mi.) Weather Sky Cond. Air Dwpt Max. Min. Relative Humidity Wind Chill (°F) Heat Index (°F) altimeter (in) sea level (mb) 1 hr 3 hr 6 hr
6 hour
Temperature (ºF) Pressure Precipitation (in)